METAR Data

Data at: 1042 UTC 21 Apr 2021

METAR for:KEWB (New Bedford Rgnl, MA, US)
Text:KEWB 210953Z AUTO 15003KT 10SM CLR 08/07 A2985 RMK AO2 SLP109 T00830067
Temperature: 8.3°C ( 47°F)
Dewpoint: 6.7°C ( 44°F) [RH = 90%]
Pressure (altimeter):29.85 inches Hg (1010.9 mb) [Sea level pressure: 1010.9 mb]
Winds:from the SSE (150 degrees) at 3 MPH (3 knots; 1.5 m/s)
Visibility:10 or more sm (16+ km)
Ceiling:at least 12,000 feet AGL
Clouds:sky clear below 12,000 feet AGL
QC Flag:automated observation with no human augmentation